MBC22 EGSS-EDDV
Flight info
| Callsign | MBC22 |
|---|---|
| Flight time | 0h 56m |
| Altitude | 35000 |
| Route | CLN P44 RATLO M197 REDFA L620 TACHA DCT EFIDE T463 NIE NIE1L |
| Aircraft | MD11/H-SDE1E2E3FGHIJ2J3J4J5M1RWXY/LB1D1 |
Departure
| Time | 2026-05-01 13:32 |
|---|---|
| Airport | London Stansted Airport (EGSS) |
Arrival
| Time | 2026-05-01 14:29 |
|---|---|
| Airport | Hannover Airport (EDDV) |
| Time | Latitude | Longitude | Altitude | Speed | Heading |
|---|---|---|---|---|---|
| 2026-05-01 12:30 | 51.88789 | 0.25062 | 330 ft | 0 kts | 223° |
| 2026-05-01 13:17 | 51.88799 | 0.25077 | 330 ft | 2 kts | 223° |
| 2026-05-01 13:17 | 51.88810 | 0.25094 | 331 ft | 2 kts | 223° |
| 2026-05-01 13:18 | 51.88829 | 0.25131 | 331 ft | 2 kts | 249° |
| 2026-05-01 13:18 | 51.88833 | 0.25154 | 331 ft | 2 kts | 264° |
| 2026-05-01 13:18 | 51.88832 | 0.25178 | 331 ft | 2 kts | 279° |
| 2026-05-01 13:18 | 51.88828 | 0.25201 | 332 ft | 2 kts | 294° |
| 2026-05-01 13:19 | 51.88821 | 0.25222 | 332 ft | 1 kts | 310° |
| 2026-05-01 13:19 | 51.88817 | 0.25228 | 332 ft | 0 kts | 313° |
| 2026-05-01 13:22 | 51.88817 | 0.25227 | 332 ft | 0 kts | 313° |
| 2026-05-01 13:22 | 51.88828 | 0.25210 | 332 ft | 6 kts | 314° |
| 2026-05-01 13:22 | 51.88883 | 0.25115 | 332 ft | 16 kts | 313° |
| 2026-05-01 13:23 | 51.88968 | 0.24959 | 334 ft | 17 kts | 307° |
| 2026-05-01 13:23 | 51.89023 | 0.24821 | 335 ft | 11 kts | 283° |
| 2026-05-01 13:23 | 51.89007 | 0.24723 | 337 ft | 7 kts | 227° |
| 2026-05-01 13:23 | 51.88961 | 0.24650 | 336 ft | 12 kts | 224° |
| 2026-05-01 13:24 | 51.88880 | 0.24527 | 335 ft | 18 kts | 222° |
| 2026-05-01 13:24 | 51.88773 | 0.24369 | 333 ft | 22 kts | 221° |
| 2026-05-01 13:24 | 51.88657 | 0.24202 | 334 ft | 21 kts | 221° |
| 2026-05-01 13:25 | 51.88451 | 0.23897 | 336 ft | 17 kts | 222° |
| 2026-05-01 13:25 | 51.88365 | 0.23770 | 338 ft | 16 kts | 223° |
| 2026-05-01 13:25 | 51.88286 | 0.23651 | 339 ft | 15 kts | 223° |
| 2026-05-01 13:25 | 51.88204 | 0.23528 | 341 ft | 17 kts | 222° |
| 2026-05-01 13:26 | 51.88110 | 0.23384 | 343 ft | 19 kts | 224° |
| 2026-05-01 13:26 | 51.87999 | 0.23211 | 341 ft | 24 kts | 223° |
| 2026-05-01 13:26 | 51.87865 | 0.23011 | 341 ft | 27 kts | 225° |
| 2026-05-01 13:26 | 51.87722 | 0.22787 | 339 ft | 29 kts | 222° |
| 2026-05-01 13:27 | 51.87572 | 0.22570 | 339 ft | 27 kts | 221° |
| 2026-05-01 13:27 | 51.87447 | 0.22385 | 338 ft | 20 kts | 225° |
| 2026-05-01 13:27 | 51.87423 | 0.22173 | 336 ft | 2 kts | 306° |
| 2026-05-01 13:28 | 51.87428 | 0.22163 | 336 ft | 0 kts | 308° |
| 2026-05-01 13:30 | 51.87542 | 0.22052 | 336 ft | 2 kts | 24° |
| 2026-05-01 13:31 | 51.87556 | 0.22066 | 337 ft | 3 kts | 37° |
| 2026-05-01 13:31 | 51.89049 | 0.24309 | 391 ft | 189 kts | 45° |
| 2026-05-01 13:32 | 51.91041 | 0.27051 | 1794 ft | 189 kts | 49° |
| 2026-05-01 13:33 | 51.91380 | 0.33775 | 3162 ft | 241 kts | 118° |
| 2026-05-01 13:33 | 51.89685 | 0.38684 | 4690 ft | 264 kts | 121° |
| 2026-05-01 13:34 | 51.88155 | 0.44162 | 6378 ft | 280 kts | 102° |
| 2026-05-01 13:34 | 51.88681 | 0.50485 | 6947 ft | 288 kts | 77° |
| 2026-05-01 13:35 | 51.89599 | 0.56738 | 7142 ft | 286 kts | 81° |
| 2026-05-01 13:35 | 51.89981 | 0.59881 | 7157 ft | 286 kts | 82° |
| 2026-05-01 13:35 | 51.90700 | 0.66186 | 7151 ft | 289 kts | 83° |
| 2026-05-01 13:36 | 51.91057 | 0.69350 | 8191 ft | 287 kts | 83° |
| 2026-05-01 13:36 | 51.91412 | 0.72501 | 9249 ft | 291 kts | 83° |
| 2026-05-01 13:36 | 51.92147 | 0.79060 | 10848 ft | 319 kts | 83° |
| 2026-05-01 13:37 | 51.92558 | 0.82748 | 11183 ft | 349 kts | 83° |
| 2026-05-01 13:37 | 51.93013 | 0.86792 | 11494 ft | 378 kts | 83° |
| 2026-05-01 13:37 | 51.93501 | 0.91051 | 12194 ft | 393 kts | 82° |
| 2026-05-01 13:37 | 51.94006 | 0.95421 | 13116 ft | 400 kts | 82° |
| 2026-05-01 13:38 | 51.95033 | 1.04323 | 15020 ft | 412 kts | 83° |
| 2026-05-01 13:38 | 51.95563 | 1.08912 | 15916 ft | 418 kts | 83° |
| 2026-05-01 13:38 | 51.96096 | 1.13525 | 16810 ft | 423 kts | 83° |
| 2026-05-01 13:39 | 51.96639 | 1.18212 | 17680 ft | 429 kts | 83° |
| 2026-05-01 13:39 | 51.97191 | 1.22960 | 18556 ft | 433 kts | 83° |
| 2026-05-01 13:39 | 51.97756 | 1.27787 | 19404 ft | 438 kts | 83° |
| 2026-05-01 13:39 | 51.98320 | 1.32607 | 20208 ft | 443 kts | 83° |
| 2026-05-01 13:40 | 51.98901 | 1.37528 | 21001 ft | 448 kts | 83° |
| 2026-05-01 13:40 | 51.99485 | 1.42480 | 21782 ft | 453 kts | 83° |
| 2026-05-01 13:40 | 52.00075 | 1.47444 | 22538 ft | 457 kts | 83° |
| 2026-05-01 13:40 | 52.00678 | 1.52506 | 23301 ft | 461 kts | 83° |
| 2026-05-01 13:41 | 52.01286 | 1.57600 | 24017 ft | 466 kts | 82° |
| 2026-05-01 13:41 | 52.01908 | 1.62800 | 24715 ft | 471 kts | 82° |
| 2026-05-01 13:41 | 52.02536 | 1.68024 | 25396 ft | 475 kts | 83° |
| 2026-05-01 13:41 | 52.03173 | 1.73299 | 26078 ft | 480 kts | 83° |
| 2026-05-01 13:42 | 52.03811 | 1.78561 | 26814 ft | 482 kts | 83° |
| 2026-05-01 13:42 | 52.04410 | 1.83918 | 27517 ft | 485 kts | 84° |
| 2026-05-01 13:42 | 52.04970 | 1.89416 | 28120 ft | 490 kts | 84° |
| 2026-05-01 13:42 | 52.05539 | 1.94953 | 28809 ft | 492 kts | 84° |
| 2026-05-01 13:43 | 52.06113 | 2.00449 | 29735 ft | 489 kts | 83° |
| 2026-05-01 13:43 | 52.06679 | 2.05804 | 30532 ft | 488 kts | 83° |
| 2026-05-01 13:43 | 52.07259 | 2.11210 | 31292 ft | 485 kts | 83° |
| 2026-05-01 13:43 | 52.07841 | 2.16618 | 32036 ft | 483 kts | 83° |
| 2026-05-01 13:44 | 52.08417 | 2.21940 | 32733 ft | 480 kts | 82° |
| 2026-05-01 13:44 | 52.08994 | 2.27254 | 33358 ft | 479 kts | 82° |
| 2026-05-01 13:44 | 52.09573 | 2.32567 | 33943 ft | 477 kts | 82° |
| 2026-05-01 13:44 | 52.10145 | 2.37804 | 34485 ft | 476 kts | 82° |
| 2026-05-01 13:45 | 52.10747 | 2.43103 | 34939 ft | 475 kts | 80° |
| 2026-05-01 13:45 | 52.11492 | 2.48335 | 35169 ft | 480 kts | 77° |
| 2026-05-01 13:45 | 52.12368 | 2.53564 | 35176 ft | 480 kts | 75° |
| 2026-05-01 13:46 | 52.14300 | 2.63956 | 35195 ft | 477 kts | 75° |
| 2026-05-01 13:46 | 52.16215 | 2.74252 | 35198 ft | 476 kts | 76° |
| 2026-05-01 13:47 | 52.18128 | 2.84535 | 35201 ft | 476 kts | 75° |
| 2026-05-01 13:47 | 52.20049 | 2.94844 | 35201 ft | 477 kts | 75° |
| 2026-05-01 13:48 | 52.21976 | 3.05127 | 35194 ft | 478 kts | 75° |
| 2026-05-01 13:48 | 52.23927 | 3.15485 | 35197 ft | 477 kts | 75° |
| 2026-05-01 13:49 | 52.25650 | 3.25982 | 35201 ft | 476 kts | 79° |
| 2026-05-01 13:49 | 52.26647 | 3.36739 | 35199 ft | 475 kts | 84° |
| 2026-05-01 13:50 | 52.27431 | 3.47439 | 35198 ft | 475 kts | 84° |
| 2026-05-01 13:50 | 52.28230 | 3.58215 | 35200 ft | 475 kts | 84° |
| 2026-05-01 13:51 | 52.29047 | 3.68996 | 35198 ft | 476 kts | 84° |
| 2026-05-01 13:51 | 52.29867 | 3.79714 | 35200 ft | 476 kts | 84° |
| 2026-05-01 13:52 | 52.30691 | 3.90382 | 35204 ft | 476 kts | 84° |
| 2026-05-01 13:52 | 52.31522 | 4.00987 | 35207 ft | 475 kts | 84° |
| 2026-05-01 13:53 | 52.32366 | 4.11675 | 35218 ft | 475 kts | 84° |
| 2026-05-01 13:53 | 52.33658 | 4.27796 | 35223 ft | 475 kts | 83° |
| 2026-05-01 13:54 | 52.34533 | 4.38561 | 35227 ft | 475 kts | 83° |
| 2026-05-01 13:54 | 52.35409 | 4.49199 | 35225 ft | 475 kts | 83° |
| 2026-05-01 13:55 | 52.36298 | 4.59893 | 35225 ft | 475 kts | 83° |
| 2026-05-01 13:55 | 52.37185 | 4.70588 | 35229 ft | 474 kts | 84° |
| 2026-05-01 13:56 | 52.37824 | 4.81285 | 35232 ft | 474 kts | 85° |
| 2026-05-01 13:56 | 52.38464 | 4.91936 | 35231 ft | 474 kts | 85° |
| 2026-05-01 13:57 | 52.39139 | 5.02606 | 35233 ft | 474 kts | 84° |
| 2026-05-01 13:57 | 52.39829 | 5.13267 | 35231 ft | 473 kts | 84° |
| 2026-05-01 13:58 | 52.40537 | 5.24074 | 35233 ft | 473 kts | 84° |
| 2026-05-01 13:58 | 52.41242 | 5.34716 | 35232 ft | 474 kts | 84° |
| 2026-05-01 13:59 | 52.41964 | 5.45473 | 35238 ft | 475 kts | 83° |
| 2026-05-01 13:59 | 52.42698 | 5.56267 | 35235 ft | 476 kts | 83° |
| 2026-05-01 14:00 | 52.43447 | 5.67102 | 35237 ft | 475 kts | 84° |
| 2026-05-01 14:00 | 52.44195 | 5.77807 | 35239 ft | 475 kts | 83° |
| 2026-05-01 14:01 | 52.44950 | 5.88457 | 35242 ft | 475 kts | 83° |
| 2026-05-01 14:01 | 52.45719 | 5.99173 | 35250 ft | 474 kts | 83° |
| 2026-05-01 14:02 | 52.46425 | 6.09922 | 35251 ft | 474 kts | 85° |
| 2026-05-01 14:02 | 52.46966 | 6.20648 | 35246 ft | 474 kts | 84° |
| 2026-05-01 14:03 | 52.47538 | 6.31334 | 35247 ft | 473 kts | 84° |
| 2026-05-01 14:03 | 52.48135 | 6.42046 | 35245 ft | 473 kts | 84° |
| 2026-05-01 14:04 | 52.48743 | 6.52733 | 35248 ft | 472 kts | 83° |
| 2026-05-01 14:04 | 52.49362 | 6.63428 | 35246 ft | 472 kts | 83° |
| 2026-05-01 14:05 | 52.49989 | 6.74155 | 35254 ft | 473 kts | 84° |
| 2026-05-01 14:05 | 52.50625 | 6.84847 | 35181 ft | 470 kts | 84° |
| 2026-05-01 14:06 | 52.50942 | 6.90130 | 34211 ft | 474 kts | 84° |
| 2026-05-01 14:06 | 52.51267 | 6.95499 | 33224 ft | 477 kts | 83° |
| 2026-05-01 14:06 | 52.51609 | 7.00889 | 32376 ft | 476 kts | 83° |
| 2026-05-01 14:06 | 52.51968 | 7.06277 | 31471 ft | 477 kts | 83° |
| 2026-05-01 14:07 | 52.52243 | 7.11634 | 30516 ft | 479 kts | 85° |
| 2026-05-01 14:07 | 52.52416 | 7.17133 | 29486 ft | 480 kts | 86° |
| 2026-05-01 14:07 | 52.52558 | 7.22529 | 28420 ft | 479 kts | 87° |
| 2026-05-01 14:08 | 52.52834 | 7.33322 | 26422 ft | 477 kts | 87° |
| 2026-05-01 14:08 | 52.52976 | 7.38752 | 25410 ft | 475 kts | 87° |
| 2026-05-01 14:08 | 52.53121 | 7.44172 | 24386 ft | 476 kts | 87° |
| 2026-05-01 14:08 | 52.53267 | 7.49522 | 23343 ft | 475 kts | 87° |
| 2026-05-01 14:09 | 52.53415 | 7.54884 | 22310 ft | 472 kts | 88° |
| 2026-05-01 14:09 | 52.53564 | 7.60226 | 21291 ft | 468 kts | 88° |
| 2026-05-01 14:09 | 52.53714 | 7.65477 | 20282 ft | 461 kts | 88° |
| 2026-05-01 14:09 | 52.53862 | 7.70664 | 19266 ft | 451 kts | 89° |
| 2026-05-01 14:10 | 52.54010 | 7.75724 | 18257 ft | 438 kts | 89° |
| 2026-05-01 14:10 | 52.54123 | 7.80618 | 17273 ft | 426 kts | 90° |
| 2026-05-01 14:10 | 52.54205 | 7.85332 | 16318 ft | 416 kts | 90° |
| 2026-05-01 14:10 | 52.54290 | 7.90020 | 15353 ft | 410 kts | 90° |
| 2026-05-01 14:11 | 52.54380 | 7.94667 | 14400 ft | 407 kts | 90° |
| 2026-05-01 14:11 | 52.54568 | 8.03752 | 12519 ft | 398 kts | 90° |
| 2026-05-01 14:11 | 52.54666 | 8.08258 | 11587 ft | 392 kts | 90° |
| 2026-05-01 14:12 | 52.54691 | 8.12608 | 11170 ft | 367 kts | 96° |
| 2026-05-01 14:12 | 52.54380 | 8.16593 | 11084 ft | 338 kts | 101° |
| 2026-05-01 14:12 | 52.54042 | 8.20220 | 11003 ft | 315 kts | 100° |
| 2026-05-01 14:12 | 52.53746 | 8.23678 | 10937 ft | 297 kts | 99° |
| 2026-05-01 14:13 | 52.53490 | 8.26951 | 10891 ft | 285 kts | 99° |
| 2026-05-01 14:13 | 52.53329 | 8.29090 | 10785 ft | 279 kts | 99° |
| 2026-05-01 14:13 | 52.53026 | 8.33256 | 10510 ft | 272 kts | 99° |
| 2026-05-01 14:13 | 52.52805 | 8.36342 | 10445 ft | 275 kts | 99° |
| 2026-05-01 14:14 | 52.52589 | 8.39395 | 10125 ft | 274 kts | 99° |
| 2026-05-01 14:14 | 52.52372 | 8.42503 | 9443 ft | 275 kts | 99° |
| 2026-05-01 14:14 | 52.52158 | 8.45600 | 8870 ft | 272 kts | 99° |
| 2026-05-01 14:14 | 52.51947 | 8.48655 | 8332 ft | 268 kts | 99° |
| 2026-05-01 14:15 | 52.51747 | 8.51578 | 8170 ft | 250 kts | 99° |
| 2026-05-01 14:15 | 52.51560 | 8.54329 | 8056 ft | 238 kts | 99° |
| 2026-05-01 14:15 | 52.51376 | 8.56986 | 7949 ft | 231 kts | 99° |
| 2026-05-01 14:15 | 52.51196 | 8.59576 | 7674 ft | 235 kts | 99° |
| 2026-05-01 14:16 | 52.51014 | 8.62228 | 7176 ft | 232 kts | 99° |
| 2026-05-01 14:16 | 52.50838 | 8.64821 | 6714 ft | 226 kts | 99° |
| 2026-05-01 14:16 | 52.50669 | 8.67338 | 6292 ft | 216 kts | 100° |
| 2026-05-01 14:16 | 52.50511 | 8.69694 | 5974 ft | 205 kts | 100° |
| 2026-05-01 14:17 | 52.50355 | 8.71981 | 5564 ft | 197 kts | 100° |
| 2026-05-01 14:17 | 52.50208 | 8.74153 | 5133 ft | 192 kts | 100° |
| 2026-05-01 14:17 | 52.50064 | 8.76302 | 4979 ft | 189 kts | 100° |
| 2026-05-01 14:17 | 52.49919 | 8.78465 | 4954 ft | 191 kts | 100° |
| 2026-05-01 14:18 | 52.49775 | 8.80630 | 4955 ft | 193 kts | 100° |
| 2026-05-01 14:18 | 52.49630 | 8.82808 | 4947 ft | 191 kts | 99° |
| 2026-05-01 14:18 | 52.49487 | 8.84967 | 4951 ft | 191 kts | 99° |
| 2026-05-01 14:18 | 52.49392 | 8.86418 | 4949 ft | 191 kts | 99° |
| 2026-05-01 14:19 | 52.49204 | 8.89269 | 4951 ft | 191 kts | 99° |
| 2026-05-01 14:19 | 52.49059 | 8.91471 | 4962 ft | 197 kts | 99° |
| 2026-05-01 14:19 | 52.48911 | 8.93703 | 4837 ft | 207 kts | 99° |
| 2026-05-01 14:19 | 52.48753 | 8.96094 | 5101 ft | 217 kts | 99° |
| 2026-05-01 14:20 | 52.48591 | 8.98579 | 4974 ft | 220 kts | 99° |
| 2026-05-01 14:20 | 52.48270 | 9.03576 | 4956 ft | 221 kts | 99° |
| 2026-05-01 14:20 | 52.48110 | 9.06057 | 4957 ft | 221 kts | 98° |
| 2026-05-01 14:21 | 52.47949 | 9.08566 | 4961 ft | 221 kts | 98° |
| 2026-05-01 14:21 | 52.47790 | 9.11051 | 4968 ft | 221 kts | 98° |
| 2026-05-01 14:21 | 52.47631 | 9.13549 | 4955 ft | 220 kts | 98° |
| 2026-05-01 14:22 | 52.47247 | 9.18524 | 4965 ft | 220 kts | 102° |
| 2026-05-01 14:22 | 52.47027 | 9.20984 | 4754 ft | 220 kts | 99° |
| 2026-05-01 14:22 | 52.46881 | 9.23459 | 4326 ft | 220 kts | 96° |
| 2026-05-01 14:22 | 52.46782 | 9.25889 | 4152 ft | 206 kts | 96° |
| 2026-05-01 14:23 | 52.46703 | 9.28193 | 3895 ft | 198 kts | 95° |
| 2026-05-01 14:23 | 52.46629 | 9.30382 | 3594 ft | 191 kts | 95° |
| 2026-05-01 14:23 | 52.46559 | 9.32540 | 3181 ft | 188 kts | 95° |
| 2026-05-01 14:23 | 52.46491 | 9.34667 | 2977 ft | 186 kts | 95° |
| 2026-05-01 14:24 | 52.46424 | 9.36796 | 2988 ft | 186 kts | 95° |
| 2026-05-01 14:24 | 52.46362 | 9.38831 | 2968 ft | 174 kts | 95° |
| 2026-05-01 14:24 | 52.46304 | 9.40754 | 2978 ft | 164 kts | 95° |
| 2026-05-01 14:24 | 52.46247 | 9.42583 | 2979 ft | 159 kts | 95° |
| 2026-05-01 14:25 | 52.46191 | 9.44367 | 2859 ft | 157 kts | 95° |
| 2026-05-01 14:25 | 52.46137 | 9.46107 | 2644 ft | 152 kts | 95° |
| 2026-05-01 14:25 | 52.46085 | 9.47811 | 2484 ft | 149 kts | 95° |
| 2026-05-01 14:25 | 52.46032 | 9.49519 | 2284 ft | 151 kts | 95° |
| 2026-05-01 14:26 | 52.45981 | 9.51230 | 2082 ft | 150 kts | 95° |
| 2026-05-01 14:26 | 52.45880 | 9.54635 | 1694 ft | 149 kts | 95° |
| 2026-05-01 14:26 | 52.45829 | 9.56320 | 1513 ft | 148 kts | 95° |
| 2026-05-01 14:27 | 52.45780 | 9.58014 | 1316 ft | 148 kts | 95° |
| 2026-05-01 14:27 | 52.45727 | 9.59705 | 1123 ft | 148 kts | 95° |
| 2026-05-01 14:27 | 52.45678 | 9.61382 | 935 ft | 148 kts | 94° |
| 2026-05-01 14:28 | 52.45582 | 9.64731 | 532 ft | 147 kts | 92° |
| 2026-05-01 14:28 | 52.45538 | 9.66393 | 348 ft | 147 kts | 92° |
| 2026-05-01 14:28 | 52.45497 | 9.68056 | 186 ft | 144 kts | 92° |
| 2026-05-01 14:28 | 52.45453 | 9.69541 | 174 ft | 112 kts | 92° |
| 2026-05-01 14:29 | 52.45508 | 9.70166 | 173 ft | 0 kts | 264° |